Burton City, Ohio
Current Conditions -  °F | °C
As of 2:56 PM on Thursday 23 Oct 2014 (Local Time) from KBJJ Reporting Station
Broken Clouds Broken Clouds  
Wind Chill: 58°   Ceiling: 2900
Heat Index: 58°   Visibility: 10mi
Dew Point: 43°   Wind: 6mph
Humidity: 58%   Direction: NA
Pressure: 30.15"   Gusts: NA
Location:  40.8369°N, 81.7632°W
Report Text: KBJJ 231856Z AUTO VRB05KT 10SM BKN029 14/06 A3015 RMK AO2 SLP210 T01440061 TSNO
Loading
Personal Weather Stations






























Interactive Weather Map New forecast layout! Learn more

10-Day Weather Forecast

Advertisements
Track Severe Weather on mobile